Etters, Pennsylvania
Current Conditions -  °F | °C
As of 3:56 PM on Sunday 23 Nov 2014 (Local Time) from KMDT Reporting Station
Overcast Overcast  
Wind Chill: 10°   Ceiling: 25000
Heat Index: 10°   Visibility: 10mi
Dew Point: -3°   Wind: 10mph
Humidity: 41%   Direction: 130°SE
Pressure: 30.07"   Gusts: NA
Location:  40.15°N, 76.79°W
Report Text: KMDT 232056Z 13009KT 10SM SCT150 OVC250 10/M03 A3007 RMK AO2 SLP185 T01001028 56016
Loading
Personal Weather Stations






























Interactive Weather Map New forecast layout! Learn more

10-Day Weather Forecast

Advertisements
Track Severe Weather on mobile